Souda — SVBH5 — position and weather

sailwx.info

Track history (hours):
 
Tides and Currents Weather Stations Pressure Air Temp Water Temp Dewpoint Dewpoint Depression Visibility Wind Speed Wind Dir Waves Ship Positions

Souda

Last reported at 2017-Aug-17 08:00 UTC. Time now 2017-Aug-17 17:05 UTC.
Position N 37°55' E 023°06'.

Length 88 m; draft 5.6 m.

Type: Tanker. MMSI: 241109000.

Date/timePositionNaut miles runAvg speedWind from/ knotsBaromVisibWave heightAir tempDewpointWater temp
2017-Aug-17 08:00N 37°55' E 023°06'0 0.3
2017-Aug-17 07:23N 37°55' E 023°06'0 0.1
2017-Aug-17 07:00N 37°55' E 023°06'0 0.0
2017-Aug-17 06:25N 37°55' E 023°06'0 0.0
2017-Aug-17 06:00N 37°55' E 023°06'0 0.0
2017-Aug-17 05:29N 37°55' E 023°06'0 0.0
2017-Aug-17 05:00N 37°55' E 023°06'0 0.0
2017-Aug-17 04:18N 37°55' E 023°06'0 0.1
2017-Aug-17 04:00N 37°55' E 023°06'0 0.0
2017-Aug-17 03:21N 37°55' E 023°06'0 0.0
2017-Aug-17 02:59N 37°55' E 023°06'0 0.0
2017-Aug-17 02:22N 37°55' E 023°06'0 0.0
2017-Aug-17 01:59N 37°55' E 023°06'0 0.0
2017-Aug-17 01:29N 37°55' E 023°06'0 0.0
2017-Aug-17 00:57N 37°55' E 023°06'0 0.0
2017-Aug-17 00:29N 37°55' E 023°06'0 0.0
2017-Aug-16 23:58N 37°55' E 023°06'0 0.0
2017-Aug-16 23:21N 37°55' E 023°06'0 0.0
2017-Aug-16 23:00N 37°55' E 023°06'0 0.0
2017-Aug-16 22:29N 37°55' E 023°06'0 0.0
2017-Aug-16 21:58N 37°55' E 023°06'0 0.0
2017-Aug-16 21:24N 37°55' E 023°06'0 0.0
2017-Aug-16 20:59N 37°55' E 023°06'0 0.0
2017-Aug-16 20:30N 37°55' E 023°06'0 0.0
2017-Aug-16 19:44N 37°55' E 023°06'0 0.0
2017-Aug-16 19:29N 37°55' E 023°06'0 0.0
2017-Aug-16 18:44N 37°55' E 023°06'0 0.0
2017-Aug-16 18:30N 37°55' E 023°06'0 0.0
2017-Aug-16 18:00N 37°55' E 023°06'0 0.1
2017-Aug-16 17:16N 37°55' E 023°06'0 0.0
2017-Aug-16 16:45N 37°55' E 023°06'0 0.0
2017-Aug-16 16:27N 37°55' E 023°06'0 0.0
2017-Aug-16 15:44N 37°55' E 023°06'0 0.0
2017-Aug-16 14:41N 37°55' E 023°06'0 0.0
2017-Aug-16 14:00N 37°55' E 023°06'0 0.1
2017-Aug-16 13:29N 37°55' E 023°06'0 0.0
2017-Aug-16 13:00N 37°55' E 023°06'0 0.1
2017-Aug-16 12:30N 37°55' E 023°06'0 0.1
2017-Aug-16 11:47N 37°55' E 023°06'0 0.0
2017-Aug-16 11:28N 37°55' E 023°06'0 0.0
2017-Aug-16 10:59N 37°55' E 023°06'0 0.0
2017-Aug-16 10:25N 37°55' E 023°06'0 0.0
2017-Aug-16 09:58N 37°55' E 023°06'0 0.1
2017-Aug-16 09:30N 37°55' E 023°06'0 0.0
2017-Aug-16 08:55N 37°55' E 023°06'1 1.6
2017-Aug-16 08:30N 37°54' E 023°07'4 8.5
2017-Aug-16 08:00N 37°54' E 023°12'4 8.8
2017-Aug-16 07:30N 37°52' E 023°17'4 8.9
2017-Aug-16 07:00N 37°51' E 023°23'4 9.0
2017-Aug-16 06:30N 37°50' E 023°28'4 8.1
2017-Aug-16 06:00N 37°52' E 023°33'5 9.1
2017-Aug-16 05:30N 37°56' E 023°35'1 2.9
2017-Aug-16 05:00N 37°57' E 023°35'0 0.0
2017-Aug-16 04:30N 37°57' E 023°35'0 0.0
2017-Aug-16 04:00N 37°57' E 023°35'0 0.0
2017-Aug-16 03:30N 37°57' E 023°35'0 0.0
2017-Aug-16 03:00N 37°57' E 023°35'0 0.0
2017-Aug-16 02:30N 37°57' E 023°35'0 0.0
2017-Aug-16 02:00N 37°57' E 023°35'0 0.0
2017-Aug-16 01:30N 37°57' E 023°35'0 0.0
2017-Aug-16 01:00N 37°57' E 023°35'0 0.0
2017-Aug-16 00:30N 37°57' E 023°35'0 0.0
2017-Aug-16 00:00N 37°57' E 023°35'0 0.0
2017-Aug-15 23:30N 37°57' E 023°35'0 0.0
2017-Aug-15 23:00N 37°57' E 023°35'0 0.0
2017-Aug-15 22:30N 37°57' E 023°35'0 0.0
2017-Aug-15 22:00N 37°57' E 023°35'0 0.0
2017-Aug-15 21:30N 37°57' E 023°35'0 0.0
2017-Aug-15 21:00N 37°57' E 023°35'0 0.0
2017-Aug-15 20:30N 37°57' E 023°35'0 0.0
2017-Aug-15 20:00N 37°57' E 023°35'0 0.0
2017-Aug-15 19:30N 37°57' E 023°35'0 0.0
2017-Aug-15 19:00N 37°57' E 023°35'0 0.0
2017-Aug-15 18:30N 37°57' E 023°35'0 0.0
2017-Aug-15 18:00N 37°57' E 023°35'0 0.0
2017-Aug-15 17:30N 37°57' E 023°35'0 0.0
2017-Aug-15 17:01N 37°57' E 023°35'0 0.0
2017-Aug-15 16:30N 37°57' E 023°35'0 0.0
2017-Aug-15 16:00N 37°57' E 023°35'0 0.0
2017-Aug-15 15:30N 37°57' E 023°35'0 0.0
2017-Aug-15 15:00N 37°57' E 023°35'0 0.0
2017-Aug-15 14:31N 37°57' E 023°35'0 0.0
2017-Aug-15 14:00N 37°57' E 023°35'0 0.0
2017-Aug-15 13:30N 37°57' E 023°35'0 0.0
2017-Aug-15 13:00N 37°57' E 023°35'0 0.0
2017-Aug-15 12:30N 37°57' E 023°35'0 0.0
2017-Aug-15 12:00N 37°57' E 023°35'0 0.0
2017-Aug-15 11:30N 37°57' E 023°35'0 0.0
2017-Aug-15 11:00N 37°57' E 023°35'0 0.0
2017-Aug-15 10:31N 37°57' E 023°35'0 0.0
2017-Aug-15 10:00N 37°57' E 023°35'0 0.0
2017-Aug-15 09:30N 37°57' E 023°35'0 0.0
2017-Aug-15 09:00N 37°57' E 023°35'0 0.0
2017-Aug-15 08:30N 37°57' E 023°35'0 0.0
2017-Aug-15 08:00N 37°57' E 023°35'0 0.0
2017-Aug-15 07:30N 37°57' E 023°35'0 0.0
2017-Aug-15 07:00N 37°57' E 023°35'0 0.0
2017-Aug-15 06:30N 37°57' E 023°35'0 0.0
2017-Aug-15 06:00N 37°57' E 023°35'0 0.0
2017-Aug-15 05:30N 37°57' E 023°35'0 0.0
2017-Aug-15 05:00N 37°57' E 023°35'0 0.0
2017-Aug-15 04:30N 37°57' E 023°35'0 0.0
2017-Aug-15 04:00N 37°57' E 023°35'0 0.0
2017-Aug-15 03:30N 37°57' E 023°35'0 0.0
2017-Aug-15 03:00N 37°57' E 023°35'0 0.0
2017-Aug-15 02:30N 37°57' E 023°35'0 0.0
2017-Aug-15 02:00N 37°57' E 023°35'0 0.0
2017-Aug-15 01:31N 37°57' E 023°35'0 0.0
2017-Aug-15 01:00N 37°57' E 023°35'0 0.0
2017-Aug-15 00:30N 37°57' E 023°35'0 0.0
2017-Aug-15 00:00N 37°57' E 023°35'0 0.0
2017-Aug-14 23:30N 37°57' E 023°35'0 0.0
2017-Aug-14 23:00N 37°57' E 023°35'0 0.0
2017-Aug-14 22:30N 37°57' E 023°35'0 0.0
2017-Aug-14 22:00N 37°57' E 023°35'0 0.0
2017-Aug-14 21:30N 37°57' E 023°35'0 0.0
2017-Aug-14 21:00N 37°57' E 023°35'0 0.0
2017-Aug-14 20:30N 37°57' E 023°35'0 0.0
2017-Aug-14 20:00N 37°57' E 023°35'0 0.0
2017-Aug-14 19:30N 37°57' E 023°35'0 0.0
2017-Aug-14 19:00N 37°57' E 023°35'0 0.0
2017-Aug-14 18:30N 37°57' E 023°35'0 0.0
2017-Aug-14 18:00N 37°57' E 023°35'0 0.0
2017-Aug-14 17:30N 37°57' E 023°35'0 0.0
2017-Aug-14 17:00N 37°57' E 023°35'0 0.0
2017-Aug-14 16:30N 37°57' E 023°35'0 0.0
2017-Aug-14 16:00N 37°57' E 023°35'0 0.0
2017-Aug-14 15:30N 37°57' E 023°35'0 0.0
2017-Aug-14 15:01N 37°57' E 023°35'0 0.0
2017-Aug-14 14:30N 37°57' E 023°35'0 0.0
2017-Aug-14 14:00N 37°57' E 023°35'0 0.0
2017-Aug-14 13:30N 37°57' E 023°35'0 0.0
2017-Aug-14 13:00N 37°57' E 023°35'0 0.0
2017-Aug-14 12:30N 37°57' E 023°35'0 0.0
2017-Aug-14 12:00N 37°57' E 023°35'0 0.0
2017-Aug-14 11:30N 37°57' E 023°35'0 0.0
2017-Aug-14 11:00N 37°57' E 023°35'0 0.0
2017-Aug-14 10:30N 37°57' E 023°35'0 0.0
2017-Aug-14 10:00N 37°57' E 023°35'0 0.0
2017-Aug-14 09:30N 37°57' E 023°35'0 0.0
2017-Aug-14 09:00N 37°57' E 023°35'0 0.0
2017-Aug-14 08:30N 37°57' E 023°35'0 0.0
2017-Aug-14 08:00N 37°57' E 023°35'0 0.0
2017-Aug-14 07:30N 37°57' E 023°35'0 0.1
2017-Aug-14 07:00N 37°57' E 023°35'2 4.2
2017-Aug-14 06:31N 37°55' E 023°34'1 2.1
2017-Aug-14 06:00N 37°55' E 023°33'0 0.0
2017-Aug-14 05:30N 37°55' E 023°33'0 0.0
2017-Aug-14 05:00N 37°55' E 023°33'0 0.0
2017-Aug-14 04:30N 37°55' E 023°33'0 0.0
2017-Aug-14 04:00N 37°55' E 023°33'0 0.0
2017-Aug-14 03:30N 37°55' E 023°33'0 0.0
2017-Aug-14 03:00N 37°55' E 023°33'0 0.0
2017-Aug-14 02:30N 37°55' E 023°33'0 0.0
2017-Aug-14 02:00N 37°55' E 023°33'0 0.0
2017-Aug-14 01:30N 37°55' E 023°33'0 0.1
2017-Aug-14 01:00N 37°55' E 023°33'0 0.0
2017-Aug-14 00:30N 37°55' E 023°33'0 0.0
2017-Aug-14 00:01N 37°55' E 023°33'1 1.6
2017-Aug-13 23:30N 37°54' E 023°34'3 6.9
2017-Aug-13 23:00N 37°51' E 023°33'4 7.7
2017-Aug-13 22:30N 37°50' E 023°28'4 8.6
2017-Aug-13 22:00N 37°51' E 023°23'4 8.5
2017-Aug-13 21:30N 37°52' E 023°17'5 8.7
2017-Aug-13 20:59N 37°53' E 023°12'4 8.6
2017-Aug-13 20:29N 37°54' E 023°07'1 0.0
2017-Aug-12 15:57N 37°55' E 023°05'0 0.9
2017-Aug-12 15:28N 37°55' E 023°06'0 0.0
2017-Aug-12 15:00N 37°55' E 023°06'0 0.1
2017-Aug-12 14:29N 37°55' E 023°06'2 3.2
2017-Aug-12 14:00N 37°54' E 023°08'4 8.3
2017-Aug-12 13:30N 37°53' E 023°13'4 9.0
2017-Aug-12 13:00N 37°52' E 023°18'4 8.9
2017-Aug-12 12:30N 37°51' E 023°24'4 8.9
2017-Aug-12 12:00N 37°50' E 023°29'4 9.0
2017-Aug-12 11:30N 37°50' E 023°35'4 8.0
2017-Aug-12 11:00N 37°50' E 023°40'4 8.9
2017-Aug-12 10:30N 37°46' E 023°43'5 9.1
2017-Aug-12 10:00N 37°42' E 023°45'4 8.9
2017-Aug-12 09:30N 37°38' E 023°49'  
2017-Aug-09 03:52N 37°36' E 023°45'3 8.5
2017-Aug-09 03:30N 37°38' E 023°43'4 8.7
2017-Aug-09 03:00N 37°42' E 023°41'4 8.7
2017-Aug-09 02:30N 37°46' E 023°38'4 8.2
2017-Aug-09 02:00N 37°49' E 023°35'4 8.5
2017-Aug-09 01:30N 37°49' E 023°30'4 8.7
2017-Aug-09 01:00N 37°50' E 023°25'4 8.7
2017-Aug-09 00:30N 37°51' E 023°19'4 8.6
2017-Aug-09 00:00N 37°53' E 023°14'5 8.6
2017-Aug-08 23:22N 37°54' E 023°07'1 0.1
2017-Aug-08 07:08N 37°55' E 023°06'0 0.3
2017-Aug-08 06:49N 37°55' E 023°06'1 1.9
2017-Aug-08 06:25N 37°54' E 023°07'1 1.4
2017-Aug-08 06:00N 37°54' E 023°07'4 7.4
2017-Aug-08 05:30N 37°53' E 023°12'4 8.5
2017-Aug-08 05:00N 37°52' E 023°17'4 8.4
2017-Aug-08 04:30N 37°51' E 023°22'4 8.4
2017-Aug-08 04:00N 37°50' E 023°27'4 8.3
2017-Aug-08 03:30N 37°50' E 023°33'4 8.4
2017-Aug-08 03:00N 37°50' E 023°38'4 7.8
2017-Aug-08 02:30N 37°48' E 023°42'4 8.4
2017-Aug-08 02:00N 37°44' E 023°44'4 8.2
2017-Aug-08 01:30N 37°40' E 023°46'4 8.0
2017-Aug-08 01:00N 37°36' E 023°48'  
Track history (hours):
 
Tides and Currents Weather Stations Pressure Air Temp Water Temp Dewpoint Dewpoint Depression Visibility Wind Speed Wind Dir Waves Ship Positions

Souda

Last reported at 2017-Aug-17 08:00 UTC. Time now 2017-Aug-17 17:05 UTC.
Position N 37°55' E 023°06'.

Length 88 m; draft 5.6 m.

Type: Tanker. MMSI: 241109000.

Date/timePositionNaut miles runAvg speedWind from/ knotsBaromVisibWave heightAir tempDewpointWater temp
2017-Aug-17 08:00N 37°55' E 023°06'0 0.3
2017-Aug-17 07:23N 37°55' E 023°06'0 0.1
2017-Aug-17 07:00N 37°55' E 023°06'0 0.0
2017-Aug-17 06:25N 37°55' E 023°06'0 0.0
2017-Aug-17 06:00N 37°55' E 023°06'0 0.0
2017-Aug-17 05:29N 37°55' E 023°06'0 0.0
2017-Aug-17 05:00N 37°55' E 023°06'0 0.0
2017-Aug-17 04:18N 37°55' E 023°06'0 0.1
2017-Aug-17 04:00N 37°55' E 023°06'0 0.0
2017-Aug-17 03:21N 37°55' E 023°06'0 0.0
2017-Aug-17 02:59N 37°55' E 023°06'0 0.0
2017-Aug-17 02:22N 37°55' E 023°06'0 0.0
2017-Aug-17 01:59N 37°55' E 023°06'0 0.0
2017-Aug-17 01:29N 37°55' E 023°06'0 0.0
2017-Aug-17 00:57N 37°55' E 023°06'0 0.0
2017-Aug-17 00:29N 37°55' E 023°06'0 0.0
2017-Aug-16 23:58N 37°55' E 023°06'0 0.0
2017-Aug-16 23:21N 37°55' E 023°06'0 0.0
2017-Aug-16 23:00N 37°55' E 023°06'0 0.0
2017-Aug-16 22:29N 37°55' E 023°06'0 0.0
2017-Aug-16 21:58N 37°55' E 023°06'0 0.0
2017-Aug-16 21:24N 37°55' E 023°06'0 0.0
2017-Aug-16 20:59N 37°55' E 023°06'0 0.0
2017-Aug-16 20:30N 37°55' E 023°06'0 0.0
2017-Aug-16 19:44N 37°55' E 023°06'0 0.0
2017-Aug-16 19:29N 37°55' E 023°06'0 0.0
2017-Aug-16 18:44N 37°55' E 023°06'0 0.0
2017-Aug-16 18:30N 37°55' E 023°06'0 0.0
2017-Aug-16 18:00N 37°55' E 023°06'0 0.1
2017-Aug-16 17:16N 37°55' E 023°06'0 0.0
2017-Aug-16 16:45N 37°55' E 023°06'0 0.0
2017-Aug-16 16:27N 37°55' E 023°06'0 0.0
2017-Aug-16 15:44N 37°55' E 023°06'0 0.0
2017-Aug-16 14:41N 37°55' E 023°06'0 0.0
2017-Aug-16 14:00N 37°55' E 023°06'0 0.1
2017-Aug-16 13:29N 37°55' E 023°06'0 0.0
2017-Aug-16 13:00N 37°55' E 023°06'0 0.1
2017-Aug-16 12:30N 37°55' E 023°06'0 0.1
2017-Aug-16 11:47N 37°55' E 023°06'0 0.0
2017-Aug-16 11:28N 37°55' E 023°06'0 0.0
2017-Aug-16 10:59N 37°55' E 023°06'0 0.0
2017-Aug-16 10:25N 37°55' E 023°06'0 0.0
2017-Aug-16 09:58N 37°55' E 023°06'0 0.1
2017-Aug-16 09:30N 37°55' E 023°06'0 0.0
2017-Aug-16 08:55N 37°55' E 023°06'1 1.6
2017-Aug-16 08:30N 37°54' E 023°07'4 8.5
2017-Aug-16 08:00N 37°54' E 023°12'4 8.8
2017-Aug-16 07:30N 37°52' E 023°17'4 8.9
2017-Aug-16 07:00N 37°51' E 023°23'4 9.0
2017-Aug-16 06:30N 37°50' E 023°28'4 8.1
2017-Aug-16 06:00N 37°52' E 023°33'5 9.1
2017-Aug-16 05:30N 37°56' E 023°35'1 2.9
2017-Aug-16 05:00N 37°57' E 023°35'0 0.0
2017-Aug-16 04:30N 37°57' E 023°35'0 0.0
2017-Aug-16 04:00N 37°57' E 023°35'0 0.0
2017-Aug-16 03:30N 37°57' E 023°35'0 0.0
2017-Aug-16 03:00N 37°57' E 023°35'0 0.0
2017-Aug-16 02:30N 37°57' E 023°35'0 0.0
2017-Aug-16 02:00N 37°57' E 023°35'0 0.0
2017-Aug-16 01:30N 37°57' E 023°35'0 0.0
2017-Aug-16 01:00N 37°57' E 023°35'0 0.0
2017-Aug-16 00:30N 37°57' E 023°35'0 0.0
2017-Aug-16 00:00N 37°57' E 023°35'0 0.0
2017-Aug-15 23:30N 37°57' E 023°35'0 0.0
2017-Aug-15 23:00N 37°57' E 023°35'0 0.0
2017-Aug-15 22:30N 37°57' E 023°35'0 0.0
2017-Aug-15 22:00N 37°57' E 023°35'0 0.0
2017-Aug-15 21:30N 37°57' E 023°35'0 0.0
2017-Aug-15 21:00N 37°57' E 023°35'0 0.0
2017-Aug-15 20:30N 37°57' E 023°35'0 0.0
2017-Aug-15 20:00N 37°57' E 023°35'0 0.0
2017-Aug-15 19:30N 37°57' E 023°35'0 0.0
2017-Aug-15 19:00N 37°57' E 023°35'0 0.0
2017-Aug-15 18:30N 37°57' E 023°35'0 0.0
2017-Aug-15 18:00N 37°57' E 023°35'0 0.0
2017-Aug-15 17:30N 37°57' E 023°35'0 0.0
2017-Aug-15 17:01N 37°57' E 023°35'0 0.0
2017-Aug-15 16:30N 37°57' E 023°35'0 0.0
2017-Aug-15 16:00N 37°57' E 023°35'0 0.0
2017-Aug-15 15:30N 37°57' E 023°35'0 0.0
2017-Aug-15 15:00N 37°57' E 023°35'0 0.0
2017-Aug-15 14:31N 37°57' E 023°35'0 0.0
2017-Aug-15 14:00N 37°57' E 023°35'0 0.0
2017-Aug-15 13:30N 37°57' E 023°35'0 0.0
2017-Aug-15 13:00N 37°57' E 023°35'0 0.0
2017-Aug-15 12:30N 37°57' E 023°35'0 0.0
2017-Aug-15 12:00N 37°57' E 023°35'0 0.0
2017-Aug-15 11:30N 37°57' E 023°35'0 0.0
2017-Aug-15 11:00N 37°57' E 023°35'0 0.0
2017-Aug-15 10:31N 37°57' E 023°35'0 0.0
2017-Aug-15 10:00N 37°57' E 023°35'0 0.0
2017-Aug-15 09:30N 37°57' E 023°35'0 0.0
2017-Aug-15 09:00N 37°57' E 023°35'0 0.0
2017-Aug-15 08:30N 37°57' E 023°35'0 0.0
2017-Aug-15 08:00N 37°57' E 023°35'0 0.0
2017-Aug-15 07:30N 37°57' E 023°35'0 0.0
2017-Aug-15 07:00N 37°57' E 023°35'0 0.0
2017-Aug-15 06:30N 37°57' E 023°35'0 0.0
2017-Aug-15 06:00N 37°57' E 023°35'0 0.0
2017-Aug-15 05:30N 37°57' E 023°35'0 0.0
2017-Aug-15 05:00N 37°57' E 023°35'0 0.0
2017-Aug-15 04:30N 37°57' E 023°35'0 0.0
2017-Aug-15 04:00N 37°57' E 023°35'0 0.0
2017-Aug-15 03:30N 37°57' E 023°35'0 0.0
2017-Aug-15 03:00N 37°57' E 023°35'0 0.0
2017-Aug-15 02:30N 37°57' E 023°35'0 0.0
2017-Aug-15 02:00N 37°57' E 023°35'0 0.0
2017-Aug-15 01:31N 37°57' E 023°35'0 0.0
2017-Aug-15 01:00N 37°57' E 023°35'0 0.0
2017-Aug-15 00:30N 37°57' E 023°35'0 0.0
2017-Aug-15 00:00N 37°57' E 023°35'0 0.0
2017-Aug-14 23:30N 37°57' E 023°35'0 0.0
2017-Aug-14 23:00N 37°57' E 023°35'0 0.0
2017-Aug-14 22:30N 37°57' E 023°35'0 0.0
2017-Aug-14 22:00N 37°57' E 023°35'0 0.0
2017-Aug-14 21:30N 37°57' E 023°35'0 0.0
2017-Aug-14 21:00N 37°57' E 023°35'0 0.0
2017-Aug-14 20:30N 37°57' E 023°35'0 0.0
2017-Aug-14 20:00N 37°57' E 023°35'0 0.0
2017-Aug-14 19:30N 37°57' E 023°35'0 0.0
2017-Aug-14 19:00N 37°57' E 023°35'0 0.0
2017-Aug-14 18:30N 37°57' E 023°35'0 0.0
2017-Aug-14 18:00N 37°57' E 023°35'0 0.0
2017-Aug-14 17:30N 37°57' E 023°35'0 0.0
2017-Aug-14 17:00N 37°57' E 023°35'0 0.0
2017-Aug-14 16:30N 37°57' E 023°35'0 0.0
2017-Aug-14 16:00N 37°57' E 023°35'0 0.0
2017-Aug-14 15:30N 37°57' E 023°35'0 0.0
2017-Aug-14 15:01N 37°57' E 023°35'0 0.0
2017-Aug-14 14:30N 37°57' E 023°35'0 0.0
2017-Aug-14 14:00N 37°57' E 023°35'0 0.0
2017-Aug-14 13:30N 37°57' E 023°35'0 0.0
2017-Aug-14 13:00N 37°57' E 023°35'0 0.0
2017-Aug-14 12:30N 37°57' E 023°35'0 0.0
2017-Aug-14 12:00N 37°57' E 023°35'0 0.0
2017-Aug-14 11:30N 37°57' E 023°35'0 0.0
2017-Aug-14 11:00N 37°57' E 023°35'0 0.0
2017-Aug-14 10:30N 37°57' E 023°35'0 0.0
2017-Aug-14 10:00N 37°57' E 023°35'0 0.0
2017-Aug-14 09:30N 37°57' E 023°35'0 0.0
2017-Aug-14 09:00N 37°57' E 023°35'0 0.0
2017-Aug-14 08:30N 37°57' E 023°35'0 0.0
2017-Aug-14 08:00N 37°57' E 023°35'0 0.0
2017-Aug-14 07:30N 37°57' E 023°35'0 0.1
2017-Aug-14 07:00N 37°57' E 023°35'2 4.2
2017-Aug-14 06:31N 37°55' E 023°34'1 2.1
2017-Aug-14 06:00N 37°55' E 023°33'0 0.0
2017-Aug-14 05:30N 37°55' E 023°33'0 0.0
2017-Aug-14 05:00N 37°55' E 023°33'0 0.0
2017-Aug-14 04:30N 37°55' E 023°33'0 0.0
2017-Aug-14 04:00N 37°55' E 023°33'0 0.0
2017-Aug-14 03:30N 37°55' E 023°33'0 0.0
2017-Aug-14 03:00N 37°55' E 023°33'0 0.0
2017-Aug-14 02:30N 37°55' E 023°33'0 0.0
2017-Aug-14 02:00N 37°55' E 023°33'0 0.0
2017-Aug-14 01:30N 37°55' E 023°33'0 0.1
2017-Aug-14 01:00N 37°55' E 023°33'0 0.0
2017-Aug-14 00:30N 37°55' E 023°33'0 0.0
2017-Aug-14 00:01N 37°55' E 023°33'1 1.6
2017-Aug-13 23:30N 37°54' E 023°34'3 6.9
2017-Aug-13 23:00N 37°51' E 023°33'4 7.7
2017-Aug-13 22:30N 37°50' E 023°28'4 8.6
2017-Aug-13 22:00N 37°51' E 023°23'4 8.5
2017-Aug-13 21:30N 37°52' E 023°17'5 8.7
2017-Aug-13 20:59N 37°53' E 023°12'4 8.6
2017-Aug-13 20:29N 37°54' E 023°07'1 0.0
2017-Aug-12 15:57N 37°55' E 023°05'0 0.9
2017-Aug-12 15:28N 37°55' E 023°06'0 0.0
2017-Aug-12 15:00N 37°55' E 023°06'0 0.1
2017-Aug-12 14:29N 37°55' E 023°06'2 3.2
2017-Aug-12 14:00N 37°54' E 023°08'4 8.3
2017-Aug-12 13:30N 37°53' E 023°13'4 9.0
2017-Aug-12 13:00N 37°52' E 023°18'4 8.9
2017-Aug-12 12:30N 37°51' E 023°24'4 8.9
2017-Aug-12 12:00N 37°50' E 023°29'4 9.0
2017-Aug-12 11:30N 37°50' E 023°35'4 8.0
2017-Aug-12 11:00N 37°50' E 023°40'4 8.9
2017-Aug-12 10:30N 37°46' E 023°43'5 9.1
2017-Aug-12 10:00N 37°42' E 023°45'4 8.9
2017-Aug-12 09:30N 37°38' E 023°49'  
2017-Aug-09 03:52N 37°36' E 023°45'3 8.5
2017-Aug-09 03:30N 37°38' E 023°43'4 8.7
2017-Aug-09 03:00N 37°42' E 023°41'4 8.7
2017-Aug-09 02:30N 37°46' E 023°38'4 8.2
2017-Aug-09 02:00N 37°49' E 023°35'4 8.5
2017-Aug-09 01:30N 37°49' E 023°30'4 8.7
2017-Aug-09 01:00N 37°50' E 023°25'4 8.7
2017-Aug-09 00:30N 37°51' E 023°19'4 8.6
2017-Aug-09 00:00N 37°53' E 023°14'5 8.6
2017-Aug-08 23:22N 37°54' E 023°07'1 0.1
2017-Aug-08 07:08N 37°55' E 023°06'0 0.3
2017-Aug-08 06:49N 37°55' E 023°06'1 1.9
2017-Aug-08 06:25N 37°54' E 023°07'1 1.4
2017-Aug-08 06:00N 37°54' E 023°07'4 7.4
2017-Aug-08 05:30N 37°53' E 023°12'4 8.5
2017-Aug-08 05:00N 37°52' E 023°17'4 8.4
2017-Aug-08 04:30N 37°51' E 023°22'4 8.4
2017-Aug-08 04:00N 37°50' E 023°27'4 8.3
2017-Aug-08 03:30N 37°50' E 023°33'4 8.4
2017-Aug-08 03:00N 37°50' E 023°38'4 7.8
2017-Aug-08 02:30N 37°48' E 023°42'4 8.4
2017-Aug-08 02:00N 37°44' E 023°44'4 8.2
2017-Aug-08 01:30N 37°40' E 023°46'4 8.0
2017-Aug-08 01:00N 37°36' E 023°48'  

Dump ship's entire track history